Whitney, Pennsylvania
Current Conditions -  °F | °C
As of 4:53 AM on Friday 24 Oct 2014 (Local Time) from KAGC Reporting Station
Clear Clear  
Wind Chill: 39°   Ceiling: Unl
Heat Index: 42°   Visibility: 10mi
Dew Point: 37°   Wind: 5mph
Humidity: 82%   Direction: 320°NW
Pressure: 30.06"   Gusts: NA
Location:  40.25°N, 79.41°W
Report Text: KAGC 240853Z 32004KT 10SM CLR 06/03 A3006 RMK AO2 SLP187 T00560028 58001
Loading
Personal Weather Stations






























Interactive Weather Map
Tropical Storm Tracking
New forecast layout! Learn more

10-Day Weather Forecast

Advertisements
Track Severe Weather on mobile